sensor_id;sensor_type;location;lat;lon;timestamp;temperature;humidity
1766;DHT22;880;52.452;8.656;2022-08-26T00:01:40;23.80;99.90
1766;DHT22;880;52.452;8.656;2022-08-26T00:04:11;23.80;99.90
1766;DHT22;880;52.452;8.656;2022-08-26T00:06:39;23.80;99.90
1766;DHT22;880;52.452;8.656;2022-08-26T00:09:11;23.70;99.90
1766;DHT22;880;52.452;8.656;2022-08-26T00:11:45;23.70;99.90
1766;DHT22;880;52.452;8.656;2022-08-26T00:14:13;23.70;99.90
1766;DHT22;880;52.452;8.656;2022-08-26T00:16:41;23.60;99.90
1766;DHT22;880;52.452;8.656;2022-08-26T00:19:14;23.70;99.90
1766;DHT22;880;52.452;8.656;2022-08-26T00:21:42;23.60;99.90
1766;DHT22;880;52.452;8.656;2022-08-26T00:24:09;23.60;99.90
1766;DHT22;880;52.452;8.656;2022-08-26T00:26:36;23.60;99.90
1766;DHT22;880;52.452;8.656;2022-08-26T00:29:07;23.60;99.90
1766;DHT22;880;52.452;8.656;2022-08-26T00:31:35;23.60;99.90
1766;DHT22;880;52.452;8.656;2022-08-26T00:34:03;23.60;99.90
1766;DHT22;880;52.452;8.656;2022-08-26T00:36:30;23.50;99.90
1766;DHT22;880;52.452;8.656;2022-08-26T00:38:58;23.50;99.90
1766;DHT22;880;52.452;8.656;2022-08-26T00:41:27;23.50;99.90
1766;DHT22;880;52.452;8.656;2022-08-26T00:43:54;23.50;99.90
1766;DHT22;880;52.452;8.656;2022-08-26T00:46:27;23.40;99.90
1766;DHT22;880;52.452;8.656;2022-08-26T00:49:04;23.50;99.90
1766;DHT22;880;52.452;8.656;2022-08-26T00:51:50;23.50;99.90
1766;DHT22;880;52.452;8.656;2022-08-26T00:54:23;23.40;99.90
1766;DHT22;880;52.452;8.656;2022-08-26T00:56:56;23.40;99.90
1766;DHT22;880;52.452;8.656;2022-08-26T00:59:26;23.30;99.90
1766;DHT22;880;52.452;8.656;2022-08-26T01:01:59;23.30;99.90
1766;DHT22;880;52.452;8.656;2022-08-26T01:04:29;23.20;99.90
1766;DHT22;880;52.452;8.656;2022-08-26T01:06:58;23.20;99.90
1766;DHT22;880;52.452;8.656;2022-08-26T01:09:26;23.20;99.90
1766;DHT22;880;52.452;8.656;2022-08-26T01:11:56;23.20;99.90
1766;DHT22;880;52.452;8.656;2022-08-26T01:14:30;23.20;99.90
1766;DHT22;880;52.452;8.656;2022-08-26T01:17:04;23.20;99.90
1766;DHT22;880;52.452;8.656;2022-08-26T01:19:42;23.20;99.90
1766;DHT22;880;52.452;8.656;2022-08-26T01:22:25;23.10;99.90
1766;DHT22;880;52.452;8.656;2022-08-26T01:24:59;23.10;99.90
1766;DHT22;880;52.452;8.656;2022-08-26T01:27:30;23.00;99.90
1766;DHT22;880;52.452;8.656;2022-08-26T01:30:00;23.00;99.90
1766;DHT22;880;52.452;8.656;2022-08-26T01:32:28;23.00;99.90
1766;DHT22;880;52.452;8.656;2022-08-26T01:34:55;23.00;99.90
1766;DHT22;880;52.452;8.656;2022-08-26T01:37:25;23.00;99.90
1766;DHT22;880;52.452;8.656;2022-08-26T01:39:55;22.80;99.90
1766;DHT22;880;52.452;8.656;2022-08-26T01:42:24;22.80;99.90
1766;DHT22;880;52.452;8.656;2022-08-26T01:44:56;22.80;99.90
1766;DHT22;880;52.452;8.656;2022-08-26T01:47:29;22.80;99.90
1766;DHT22;880;52.452;8.656;2022-08-26T01:49:59;22.80;99.90
1766;DHT22;880;52.452;8.656;2022-08-26T01:52:29;22.80;99.90
1766;DHT22;880;52.452;8.656;2022-08-26T01:54:59;22.80;99.90
1766;DHT22;880;52.452;8.656;2022-08-26T01:57:26;22.80;99.90
1766;DHT22;880;52.452;8.656;2022-08-26T01:59:57;22.70;99.90
1766;DHT22;880;52.452;8.656;2022-08-26T02:02:25;22.70;99.90
1766;DHT22;880;52.452;8.656;2022-08-26T02:04:59;22.60;99.90
1766;DHT22;880;52.452;8.656;2022-08-26T02:07:28;22.70;99.90
1766;DHT22;880;52.452;8.656;2022-08-26T02:09:58;22.60;99.90
1766;DHT22;880;52.452;8.656;2022-08-26T02:12:26;22.60;99.90
1766;DHT22;880;52.452;8.656;2022-08-26T02:14:57;22.50;99.90
1766;DHT22;880;52.452;8.656;2022-08-26T02:17:31;22.50;99.90
1766;DHT22;880;52.452;8.656;2022-08-26T02:20:01;22.50;99.90
1766;DHT22;880;52.452;8.656;2022-08-26T02:22:30;22.50;99.90
1766;DHT22;880;52.452;8.656;2022-08-26T02:24:58;22.50;99.90
1766;DHT22;880;52.452;8.656;2022-08-26T02:27:30;22.40;99.90
1766;DHT22;880;52.452;8.656;2022-08-26T02:32:45;22.40;99.90
1766;DHT22;880;52.452;8.656;2022-08-26T02:35:17;22.40;99.90
1766;DHT22;880;52.452;8.656;2022-08-26T02:37:46;22.30;99.90
1766;DHT22;880;52.452;8.656;2022-08-26T02:40:20;22.30;99.90
1766;DHT22;880;52.452;8.656;2022-08-26T02:42:50;22.30;99.90
1766;DHT22;880;52.452;8.656;2022-08-26T02:45:21;22.30;99.90
1766;DHT22;880;52.452;8.656;2022-08-26T02:47:50;22.30;99.90
1766;DHT22;880;52.452;8.656;2022-08-26T02:50:19;22.30;99.90
1766;DHT22;880;52.452;8.656;2022-08-26T02:52:46;22.30;99.90
1766;DHT22;880;52.452;8.656;2022-08-26T02:55:14;22.30;99.90
1766;DHT22;880;52.452;8.656;2022-08-26T02:57:41;22.30;99.90
1766;DHT22;880;52.452;8.656;2022-08-26T03:00:10;22.20;99.90
1766;DHT22;880;52.452;8.656;2022-08-26T03:02:40;22.20;99.90
1766;DHT22;880;52.452;8.656;2022-08-26T03:05:08;22.20;99.90
1766;DHT22;880;52.452;8.656;2022-08-26T03:07:36;22.20;99.90
1766;DHT22;880;52.452;8.656;2022-08-26T03:10:04;22.20;99.90
1766;DHT22;880;52.452;8.656;2022-08-26T03:12:34;22.20;99.90
1766;DHT22;880;52.452;8.656;2022-08-26T03:15:02;22.20;99.90
1766;DHT22;880;52.452;8.656;2022-08-26T03:17:45;22.20;99.90
1766;DHT22;880;52.452;8.656;2022-08-26T03:20:14;22.10;99.90
1766;DHT22;880;52.452;8.656;2022-08-26T03:22:43;22.10;99.90
1766;DHT22;880;52.452;8.656;2022-08-26T03:25:13;22.00;99.90
1766;DHT22;880;52.452;8.656;2022-08-26T03:27:41;22.00;99.90
1766;DHT22;880;52.452;8.656;2022-08-26T03:30:10;22.00;99.90
1766;DHT22;880;52.452;8.656;2022-08-26T03:32:57;22.00;99.90
1766;DHT22;880;52.452;8.656;2022-08-26T03:35:24;22.00;99.90
1766;DHT22;880;52.452;8.656;2022-08-26T03:37:52;21.90;99.90
1766;DHT22;880;52.452;8.656;2022-08-26T03:40:19;21.90;99.90
1766;DHT22;880;52.452;8.656;2022-08-26T03:42:48;21.90;99.90
1766;DHT22;880;52.452;8.656;2022-08-26T03:45:16;21.90;99.90
1766;DHT22;880;52.452;8.656;2022-08-26T03:47:45;21.90;99.90
1766;DHT22;880;52.452;8.656;2022-08-26T03:50:17;21.90;99.90
1766;DHT22;880;52.452;8.656;2022-08-26T03:52:50;21.90;99.90
1766;DHT22;880;52.452;8.656;2022-08-26T03:55:19;21.90;99.90
1766;DHT22;880;52.452;8.656;2022-08-26T03:57:49;21.80;99.90
1766;DHT22;880;52.452;8.656;2022-08-26T04:00:17;21.80;99.90
1766;DHT22;880;52.452;8.656;2022-08-26T04:02:47;21.80;99.90
1766;DHT22;880;52.452;8.656;2022-08-26T04:05:20;21.80;99.90
1766;DHT22;880;52.452;8.656;2022-08-26T04:07:48;22.20;99.90
1766;DHT22;880;52.452;8.656;2022-08-26T04:10:17;22.60;99.90
1766;DHT22;880;52.452;8.656;2022-08-26T04:12:54;23.00;99.90
1766;DHT22;880;52.452;8.656;2022-08-26T04:15:24;23.20;99.90
1766;DHT22;880;52.452;8.656;2022-08-26T04:17:52;23.40;99.90
1766;DHT22;880;52.452;8.656;2022-08-26T04:20:21;23.50;99.90
1766;DHT22;880;52.452;8.656;2022-08-26T04:22:49;23.60;99.90
1766;DHT22;880;52.452;8.656;2022-08-26T04:25:16;23.70;99.90
1766;DHT22;880;52.452;8.656;2022-08-26T04:27:46;23.70;99.90
1766;DHT22;880;52.452;8.656;2022-08-26T04:30:14;23.70;99.90
1766;DHT22;880;52.452;8.656;2022-08-26T04:32:42;23.40;99.90
1766;DHT22;880;52.452;8.656;2022-08-26T04:35:09;23.00;99.90
1766;DHT22;880;52.452;8.656;2022-08-26T04:37:36;22.70;99.90
1766;DHT22;880;52.452;8.656;2022-08-26T04:40:04;22.50;99.90
1766;DHT22;880;52.452;8.656;2022-08-26T04:42:32;22.20;99.90
1766;DHT22;880;52.452;8.656;2022-08-26T04:45:00;22.00;99.90
1766;DHT22;880;52.452;8.656;2022-08-26T04:47:31;21.90;99.90
1766;DHT22;880;52.452;8.656;2022-08-26T04:49:58;21.80;99.90
1766;DHT22;880;52.452;8.656;2022-08-26T04:52:27;21.70;99.90
1766;DHT22;880;52.452;8.656;2022-08-26T04:54:56;21.60;99.90
1766;DHT22;880;52.452;8.656;2022-08-26T04:57:23;21.60;99.90
1766;DHT22;880;52.452;8.656;2022-08-26T04:59:50;21.60;99.90
1766;DHT22;880;52.452;8.656;2022-08-26T05:02:17;21.50;99.90
1766;DHT22;880;52.452;8.656;2022-08-26T05:04:44;21.50;99.90
1766;DHT22;880;52.452;8.656;2022-08-26T05:07:11;21.50;99.90
1766;DHT22;880;52.452;8.656;2022-08-26T05:09:39;21.50;99.90
1766;DHT22;880;52.452;8.656;2022-08-26T05:12:06;21.50;99.90
1766;DHT22;880;52.452;8.656;2022-08-26T05:14:34;21.50;99.90
1766;DHT22;880;52.452;8.656;2022-08-26T05:17:02;21.60;99.90
1766;DHT22;880;52.452;8.656;2022-08-26T05:19:30;22.00;99.90
1766;DHT22;880;52.452;8.656;2022-08-26T05:21:58;22.50;99.90
1766;DHT22;880;52.452;8.656;2022-08-26T05:24:25;23.00;99.90
1766;DHT22;880;52.452;8.656;2022-08-26T05:26:53;23.30;99.90
1766;DHT22;880;52.452;8.656;2022-08-26T05:29:22;23.60;99.90
1766;DHT22;880;52.452;8.656;2022-08-26T05:31:50;23.80;99.90
1766;DHT22;880;52.452;8.656;2022-08-26T05:34:17;23.90;99.90
1766;DHT22;880;52.452;8.656;2022-08-26T05:36:45;24.10;99.90
1766;DHT22;880;52.452;8.656;2022-08-26T05:39:12;24.20;99.90
1766;DHT22;880;52.452;8.656;2022-08-26T05:41:41;24.30;99.90
1766;DHT22;880;52.452;8.656;2022-08-26T05:44:13;24.40;99.90
1766;DHT22;880;52.452;8.656;2022-08-26T05:46:42;24.40;99.90
1766;DHT22;880;52.452;8.656;2022-08-26T05:49:11;24.50;99.90
1766;DHT22;880;52.452;8.656;2022-08-26T05:51:41;24.50;99.90
1766;DHT22;880;52.452;8.656;2022-08-26T05:54:11;24.60;99.90
1766;DHT22;880;52.452;8.656;2022-08-26T05:56:39;24.30;99.90
1766;DHT22;880;52.452;8.656;2022-08-26T05:59:12;24.00;99.90
1766;DHT22;880;52.452;8.656;2022-08-26T06:01:42;23.80;99.90
1766;DHT22;880;52.452;8.656;2022-08-26T06:04:10;23.70;99.90
1766;DHT22;880;52.452;8.656;2022-08-26T06:06:37;23.60;99.90
1766;DHT22;880;52.452;8.656;2022-08-26T06:09:08;23.60;99.90
1766;DHT22;880;52.452;8.656;2022-08-26T06:11:37;23.70;99.90
1766;DHT22;880;52.452;8.656;2022-08-26T06:14:05;23.70;99.90
1766;DHT22;880;52.452;8.656;2022-08-26T06:16:36;23.80;99.90
1766;DHT22;880;52.452;8.656;2022-08-26T06:19:09;23.70;99.90
1766;DHT22;880;52.452;8.656;2022-08-26T06:21:39;23.60;99.90
1766;DHT22;880;52.452;8.656;2022-08-26T06:24:12;23.60;99.90
1766;DHT22;880;52.452;8.656;2022-08-26T06:27:05;23.80;99.90
1766;DHT22;880;52.452;8.656;2022-08-26T06:29:37;24.00;99.90
1766;DHT22;880;52.452;8.656;2022-08-26T06:32:04;24.10;99.90
1766;DHT22;880;52.452;8.656;2022-08-26T06:34:32;24.10;99.90
1766;DHT22;880;52.452;8.656;2022-08-26T06:37:00;24.00;99.90
1766;DHT22;880;52.452;8.656;2022-08-26T06:39:32;24.10;99.90
1766;DHT22;880;52.452;8.656;2022-08-26T06:41:59;24.00;99.90
1766;DHT22;880;52.452;8.656;2022-08-26T06:44:32;24.10;99.90
1766;DHT22;880;52.452;8.656;2022-08-26T06:47:00;24.20;99.90
1766;DHT22;880;52.452;8.656;2022-08-26T06:49:27;24.40;99.90
1766;DHT22;880;52.452;8.656;2022-08-26T06:51:55;24.50;99.90
1766;DHT22;880;52.452;8.656;2022-08-26T06:54:27;24.60;99.90
1766;DHT22;880;52.452;8.656;2022-08-26T06:56:56;24.70;99.90
1766;DHT22;880;52.452;8.656;2022-08-26T06:59:23;24.80;99.90
1766;DHT22;880;52.452;8.656;2022-08-26T07:01:51;24.90;99.90
1766;DHT22;880;52.452;8.656;2022-08-26T07:04:19;25.10;99.90
1766;DHT22;880;52.452;8.656;2022-08-26T07:06:50;25.20;99.90
1766;DHT22;880;52.452;8.656;2022-08-26T07:09:24;25.40;99.90
1766;DHT22;880;52.452;8.656;2022-08-26T07:11:54;25.60;99.90
1766;DHT22;880;52.452;8.656;2022-08-26T07:14:24;25.70;99.90
1766;DHT22;880;52.452;8.656;2022-08-26T07:16:52;25.80;99.90
1766;DHT22;880;52.452;8.656;2022-08-26T07:19:20;25.80;99.90
1766;DHT22;880;52.452;8.656;2022-08-26T07:21:58;25.80;99.90
1766;DHT22;880;52.452;8.656;2022-08-26T07:24:27;25.80;99.90
1766;DHT22;880;52.452;8.656;2022-08-26T07:27:01;25.80;99.90
1766;DHT22;880;52.452;8.656;2022-08-26T07:29:33;25.80;99.90
1766;DHT22;880;52.452;8.656;2022-08-26T07:32:01;25.80;99.90
1766;DHT22;880;52.452;8.656;2022-08-26T07:34:29;25.80;99.90
1766;DHT22;880;52.452;8.656;2022-08-26T07:36:59;25.80;99.90
1766;DHT22;880;52.452;8.656;2022-08-26T07:39:27;25.70;99.90
1766;DHT22;880;52.452;8.656;2022-08-26T07:41:58;25.80;99.90
1766;DHT22;880;52.452;8.656;2022-08-26T07:44:27;26.00;99.90
1766;DHT22;880;52.452;8.656;2022-08-26T07:46:55;26.10;99.90
1766;DHT22;880;52.452;8.656;2022-08-26T07:49:23;26.20;99.90
1766;DHT22;880;52.452;8.656;2022-08-26T07:51:53;26.30;99.90
1766;DHT22;880;52.452;8.656;2022-08-26T07:54:21;26.50;99.90
1766;DHT22;880;52.452;8.656;2022-08-26T07:56:53;26.50;99.90
1766;DHT22;880;52.452;8.656;2022-08-26T07:59:21;26.60;99.90
1766;DHT22;880;52.452;8.656;2022-08-26T08:01:49;26.80;99.90
1766;DHT22;880;52.452;8.656;2022-08-26T08:04:17;26.80;99.90
1766;DHT22;880;52.452;8.656;2022-08-26T08:06:52;26.80;99.90
1766;DHT22;880;52.452;8.656;2022-08-26T08:09:20;26.80;99.90
1766;DHT22;880;52.452;8.656;2022-08-26T08:11:48;26.70;99.90
1766;DHT22;880;52.452;8.656;2022-08-26T08:14:17;26.50;99.90
1766;DHT22;880;52.452;8.656;2022-08-26T08:16:48;26.50;99.90
1766;DHT22;880;52.452;8.656;2022-08-26T08:19:21;26.50;99.90
1766;DHT22;880;52.452;8.656;2022-08-26T08:21:49;26.50;99.90
1766;DHT22;880;52.452;8.656;2022-08-26T08:24:16;26.50;99.90
1766;DHT22;880;52.452;8.656;2022-08-26T08:26:44;26.40;99.90
1766;DHT22;880;52.452;8.656;2022-08-26T08:29:11;26.30;99.90
1766;DHT22;880;52.452;8.656;2022-08-26T08:31:38;26.30;99.90
1766;DHT22;880;52.452;8.656;2022-08-26T08:34:26;26.20;99.90
1766;DHT22;880;52.452;8.656;2022-08-26T08:36:55;26.20;99.90
1766;DHT22;880;52.452;8.656;2022-08-26T08:39:23;26.20;99.90
1766;DHT22;880;52.452;8.656;2022-08-26T08:44:51;26.60;99.90
1766;DHT22;880;52.452;8.656;2022-08-26T08:47:36;26.90;99.90
1766;DHT22;880;52.452;8.656;2022-08-26T08:50:18;27.30;99.90
1766;DHT22;880;52.452;8.656;2022-08-26T08:53:09;27.50;99.90
1766;DHT22;880;52.452;8.656;2022-08-26T08:59:16;27.90;99.90
1766;DHT22;880;52.452;8.656;2022-08-26T09:05:02;28.20;99.90
1766;DHT22;880;52.452;8.656;2022-08-26T09:08:09;28.10;99.90
1766;DHT22;880;52.452;8.656;2022-08-26T09:10:44;28.00;99.90
1766;DHT22;880;52.452;8.656;2022-08-26T09:13:18;27.90;99.90
1766;DHT22;880;52.452;8.656;2022-08-26T09:16:04;27.90;99.90
1766;DHT22;880;52.452;8.656;2022-08-26T09:19:25;28.20;99.90
1766;DHT22;880;52.452;8.656;2022-08-26T09:21:56;28.40;99.90
1766;DHT22;880;52.452;8.656;2022-08-26T09:24:29;28.50;99.90
1766;DHT22;880;52.452;8.656;2022-08-26T09:26:56;28.50;99.90
1766;DHT22;880;52.452;8.656;2022-08-26T09:29:28;28.50;99.90
1766;DHT22;880;52.452;8.656;2022-08-26T09:32:18;28.30;99.90
1766;DHT22;880;52.452;8.656;2022-08-26T09:35:02;28.50;99.90
1766;DHT22;880;52.452;8.656;2022-08-26T09:37:44;28.70;99.90
1766;DHT22;880;52.452;8.656;2022-08-26T09:43:14;28.70;99.90
1766;DHT22;880;52.452;8.656;2022-08-26T09:45:53;28.50;99.90
1766;DHT22;880;52.452;8.656;2022-08-26T09:48:36;28.50;99.90
1766;DHT22;880;52.452;8.656;2022-08-26T09:51:29;28.50;99.90
1766;DHT22;880;52.452;8.656;2022-08-26T09:54:02;28.50;99.90
1766;DHT22;880;52.452;8.656;2022-08-26T09:56:38;28.60;99.90
1766;DHT22;880;52.452;8.656;2022-08-26T09:59:09;28.80;99.90
1766;DHT22;880;52.452;8.656;2022-08-26T10:01:39;28.90;99.90
1766;DHT22;880;52.452;8.656;2022-08-26T10:04:12;29.00;99.90
1766;DHT22;880;52.452;8.656;2022-08-26T10:07:04;29.10;99.90
1766;DHT22;880;52.452;8.656;2022-08-26T10:09:35;29.10;99.90
1766;DHT22;880;52.452;8.656;2022-08-26T10:12:10;29.00;99.90
1766;DHT22;880;52.452;8.656;2022-08-26T10:14:50;28.90;99.90
1766;DHT22;880;52.452;8.656;2022-08-26T10:17:39;28.70;99.90
1766;DHT22;880;52.452;8.656;2022-08-26T10:20:18;28.50;99.90
1766;DHT22;880;52.452;8.656;2022-08-26T10:23:06;28.60;99.90
1766;DHT22;880;52.452;8.656;2022-08-26T10:25:50;28.60;99.90
1766;DHT22;880;52.452;8.656;2022-08-26T10:28:37;28.80;99.90
1766;DHT22;880;52.452;8.656;2022-08-26T10:31:24;29.20;99.90
1766;DHT22;880;52.452;8.656;2022-08-26T10:33:54;29.50;99.90
1766;DHT22;880;52.452;8.656;2022-08-26T10:36:30;29.80;99.90
1766;DHT22;880;52.452;8.656;2022-08-26T10:42:33;29.60;99.90
1766;DHT22;880;52.452;8.656;2022-08-26T10:45:09;29.80;99.90
1766;DHT22;880;52.452;8.656;2022-08-26T10:51:45;30.20;99.90
1766;DHT22;880;52.452;8.656;2022-08-26T10:55:04;30.60;99.90
1766;DHT22;880;52.452;8.656;2022-08-26T10:57:53;30.40;99.90
1766;DHT22;880;52.452;8.656;2022-08-26T11:00:59;30.50;99.90
1766;DHT22;880;52.452;8.656;2022-08-26T11:03:57;30.70;99.90
1766;DHT22;880;52.452;8.656;2022-08-26T11:06:30;30.80;99.90
1766;DHT22;880;52.452;8.656;2022-08-26T11:09:00;31.00;99.90
1766;DHT22;880;52.452;8.656;2022-08-26T11:16:56;30.90;99.90
1766;DHT22;880;52.452;8.656;2022-08-26T11:22:34;30.90;99.90
1766;DHT22;880;52.452;8.656;2022-08-26T11:25:24;31.40;99.90
1766;DHT22;880;52.452;8.656;2022-08-26T11:27:59;31.70;99.50
1766;DHT22;880;52.452;8.656;2022-08-26T11:30:37;31.90;98.30
1766;DHT22;880;52.452;8.656;2022-08-26T11:33:06;31.80;98.30
1766;DHT22;880;52.452;8.656;2022-08-26T11:38:16;31.80;99.00
1766;DHT22;880;52.452;8.656;2022-08-26T11:41:05;31.90;99.40
1766;DHT22;880;52.452;8.656;2022-08-26T11:43:38;31.70;99.30
1766;DHT22;880;52.452;8.656;2022-08-26T11:46:11;31.30;99.90
1766;DHT22;880;52.452;8.656;2022-08-26T11:48:40;31.00;99.90
1766;DHT22;880;52.452;8.656;2022-08-26T11:51:10;31.00;99.90
1766;DHT22;880;52.452;8.656;2022-08-26T11:53:47;31.00;99.90
1766;DHT22;880;52.452;8.656;2022-08-26T11:56:26;31.10;99.90
1766;DHT22;880;52.452;8.656;2022-08-26T11:58:59;31.10;99.90
1766;DHT22;880;52.452;8.656;2022-08-26T12:01:31;31.10;99.90
1766;DHT22;880;52.452;8.656;2022-08-26T12:04:03;31.00;99.90
1766;DHT22;880;52.452;8.656;2022-08-26T12:06:45;31.10;99.90
1766;DHT22;880;52.452;8.656;2022-08-26T12:09:22;31.10;99.90
1766;DHT22;880;52.452;8.656;2022-08-26T12:11:51;31.40;99.90
1766;DHT22;880;52.452;8.656;2022-08-26T12:14:25;31.30;99.90
1766;DHT22;880;52.452;8.656;2022-08-26T12:16:53;31.00;99.90
1766;DHT22;880;52.452;8.656;2022-08-26T12:19:25;31.00;99.90
1766;DHT22;880;52.452;8.656;2022-08-26T12:22:17;31.30;99.90
1766;DHT22;880;52.452;8.656;2022-08-26T12:24:55;31.30;99.90
1766;DHT22;880;52.452;8.656;2022-08-26T12:27:27;31.10;99.90
1766;DHT22;880;52.452;8.656;2022-08-26T12:32:35;31.10;99.90
1766;DHT22;880;52.452;8.656;2022-08-26T12:35:23;31.10;99.90
1766;DHT22;880;52.452;8.656;2022-08-26T12:37:52;31.20;99.90
1766;DHT22;880;52.452;8.656;2022-08-26T12:43:11;31.40;99.90
1766;DHT22;880;52.452;8.656;2022-08-26T12:45:55;31.80;99.90
1766;DHT22;880;52.452;8.656;2022-08-26T12:48:29;32.20;99.00
1766;DHT22;880;52.452;8.656;2022-08-26T12:50:59;32.40;98.80
1766;DHT22;880;52.452;8.656;2022-08-26T12:53:31;32.60;98.10
1766;DHT22;880;52.452;8.656;2022-08-26T12:56:02;32.30;98.20
1766;DHT22;880;52.452;8.656;2022-08-26T12:58:37;32.20;98.10
1766;DHT22;880;52.452;8.656;2022-08-26T13:08:54;32.00;97.60
1766;DHT22;880;52.452;8.656;2022-08-26T13:11:30;31.90;98.00
1766;DHT22;880;52.452;8.656;2022-08-26T13:14:05;32.00;97.60
1766;DHT22;880;52.452;8.656;2022-08-26T13:16:36;32.10;97.30
1766;DHT22;880;52.452;8.656;2022-08-26T13:19:08;32.20;96.70
1766;DHT22;880;52.452;8.656;2022-08-26T13:21:52;32.50;96.70
1766;DHT22;880;52.452;8.656;2022-08-26T13:24:43;32.80;96.20
1766;DHT22;880;52.452;8.656;2022-08-26T13:27:12;33.20;95.00
1766;DHT22;880;52.452;8.656;2022-08-26T13:29:40;33.20;93.50
1766;DHT22;880;52.452;8.656;2022-08-26T13:32:08;33.00;93.70
1766;DHT22;880;52.452;8.656;2022-08-26T13:34:37;32.90;93.90
1766;DHT22;880;52.452;8.656;2022-08-26T13:37:04;32.70;94.00
1766;DHT22;880;52.452;8.656;2022-08-26T13:39:32;32.60;94.40
1766;DHT22;880;52.452;8.656;2022-08-26T13:41:59;32.40;94.30
1766;DHT22;880;52.452;8.656;2022-08-26T13:44:26;32.10;94.80
1766;DHT22;880;52.452;8.656;2022-08-26T13:46:53;32.00;94.50
1766;DHT22;880;52.452;8.656;2022-08-26T13:49:20;31.80;95.00
1766;DHT22;880;52.452;8.656;2022-08-26T13:51:48;31.70;95.40
1766;DHT22;880;52.452;8.656;2022-08-26T13:54:15;31.60;95.20
1766;DHT22;880;52.452;8.656;2022-08-26T13:56:42;31.70;96.00
1766;DHT22;880;52.452;8.656;2022-08-26T13:59:09;31.70;95.80
1766;DHT22;880;52.452;8.656;2022-08-26T14:01:36;31.50;93.70
1766;DHT22;880;52.452;8.656;2022-08-26T14:04:05;31.30;93.10
1766;DHT22;880;52.452;8.656;2022-08-26T14:06:32;30.80;92.90
1766;DHT22;880;52.452;8.656;2022-08-26T14:08:59;30.10;94.50
1766;DHT22;880;52.452;8.656;2022-08-26T14:11:26;29.90;96.10
1766;DHT22;880;52.452;8.656;2022-08-26T14:14:07;29.70;96.90
1766;DHT22;880;52.452;8.656;2022-08-26T14:16:36;29.70;96.80
1766;DHT22;880;52.452;8.656;2022-08-26T14:19:24;29.60;96.70
1766;DHT22;880;52.452;8.656;2022-08-26T14:21:51;29.50;96.30
1766;DHT22;880;52.452;8.656;2022-08-26T14:24:18;29.40;96.00
1766;DHT22;880;52.452;8.656;2022-08-26T14:26:45;29.30;95.50
1766;DHT22;880;52.452;8.656;2022-08-26T14:29:14;29.30;95.10
1766;DHT22;880;52.452;8.656;2022-08-26T14:31:42;29.10;94.00
1766;DHT22;880;52.452;8.656;2022-08-26T14:34:11;29.00;93.70
1766;DHT22;880;52.452;8.656;2022-08-26T14:36:39;28.90;93.90
1766;DHT22;880;52.452;8.656;2022-08-26T14:39:08;28.90;94.00
1766;DHT22;880;52.452;8.656;2022-08-26T14:41:48;28.80;94.50
1766;DHT22;880;52.452;8.656;2022-08-26T14:44:28;28.50;95.10
1766;DHT22;880;52.452;8.656;2022-08-26T14:46:59;28.50;96.00
1766;DHT22;880;52.452;8.656;2022-08-26T14:49:28;28.60;97.10
1766;DHT22;880;52.452;8.656;2022-08-26T14:51:56;28.60;99.10
1766;DHT22;880;52.452;8.656;2022-08-26T14:54:24;28.10;99.90
1766;DHT22;880;52.452;8.656;2022-08-26T14:57:04;27.70;99.90
1766;DHT22;880;52.452;8.656;2022-08-26T14:59:36;27.60;99.90
1766;DHT22;880;52.452;8.656;2022-08-26T15:02:07;27.30;99.90
1766;DHT22;880;52.452;8.656;2022-08-26T15:04:39;27.00;99.90
1766;DHT22;880;52.452;8.656;2022-08-26T15:07:07;27.00;99.90
1766;DHT22;880;52.452;8.656;2022-08-26T15:09:38;26.90;99.90
1766;DHT22;880;52.452;8.656;2022-08-26T15:12:05;26.60;99.90
1766;DHT22;880;52.452;8.656;2022-08-26T15:14:32;26.50;99.90
1766;DHT22;880;52.452;8.656;2022-08-26T15:17:00;26.50;99.90
1766;DHT22;880;52.452;8.656;2022-08-26T15:19:27;26.30;99.90
1766;DHT22;880;52.452;8.656;2022-08-26T15:21:55;26.00;99.90
1766;DHT22;880;52.452;8.656;2022-08-26T15:24:23;25.30;99.90
1766;DHT22;880;52.452;8.656;2022-08-26T15:26:51;24.30;99.90
1766;DHT22;880;52.452;8.656;2022-08-26T15:29:19;23.80;99.90
1766;DHT22;880;52.452;8.656;2022-08-26T15:31:47;23.60;99.90
1766;DHT22;880;52.452;8.656;2022-08-26T15:34:14;23.40;99.90
1766;DHT22;880;52.452;8.656;2022-08-26T15:36:44;23.40;99.90
1766;DHT22;880;52.452;8.656;2022-08-26T15:39:13;23.40;99.90
1766;DHT22;880;52.452;8.656;2022-08-26T15:41:41;23.60;99.90
1766;DHT22;880;52.452;8.656;2022-08-26T15:44:12;23.70;99.90
1766;DHT22;880;52.452;8.656;2022-08-26T15:46:40;23.80;99.90
1766;DHT22;880;52.452;8.656;2022-08-26T15:49:08;24.00;99.90
1766;DHT22;880;52.452;8.656;2022-08-26T15:51:45;24.50;99.90
1766;DHT22;880;52.452;8.656;2022-08-26T15:54:16;24.90;99.90
1766;DHT22;880;52.452;8.656;2022-08-26T15:56:45;25.40;99.90
1766;DHT22;880;52.452;8.656;2022-08-26T15:59:15;25.70;99.90
1766;DHT22;880;52.452;8.656;2022-08-26T16:01:42;25.90;99.90
1766;DHT22;880;52.452;8.656;2022-08-26T16:04:10;25.90;99.90
1766;DHT22;880;52.452;8.656;2022-08-26T16:06:39;26.00;99.90
1766;DHT22;880;52.452;8.656;2022-08-26T16:09:08;26.00;99.90
1766;DHT22;880;52.452;8.656;2022-08-26T16:11:36;26.00;99.90
1766;DHT22;880;52.452;8.656;2022-08-26T16:14:04;26.10;99.90
1766;DHT22;880;52.452;8.656;2022-08-26T16:16:31;26.20;99.90
1766;DHT22;880;52.452;8.656;2022-08-26T16:18:58;26.30;99.90
1766;DHT22;880;52.452;8.656;2022-08-26T16:21:32;26.40;99.90
1766;DHT22;880;52.452;8.656;2022-08-26T16:24:00;26.40;99.90
1766;DHT22;880;52.452;8.656;2022-08-26T16:26:29;26.40;99.90
1766;DHT22;880;52.452;8.656;2022-08-26T16:29:00;26.50;99.90
1766;DHT22;880;52.452;8.656;2022-08-26T16:31:29;26.60;99.90
1766;DHT22;880;52.452;8.656;2022-08-26T16:33:56;26.80;99.90
1766;DHT22;880;52.452;8.656;2022-08-26T16:36:23;27.10;99.90
1766;DHT22;880;52.452;8.656;2022-08-26T16:38:51;27.30;99.90
1766;DHT22;880;52.452;8.656;2022-08-26T16:41:26;27.40;99.90
1766;DHT22;880;52.452;8.656;2022-08-26T16:43:54;27.30;99.90
1766;DHT22;880;52.452;8.656;2022-08-26T16:46:23;27.20;99.90
1766;DHT22;880;52.452;8.656;2022-08-26T16:48:54;27.00;99.90
1766;DHT22;880;52.452;8.656;2022-08-26T16:51:23;26.90;99.90
1766;DHT22;880;52.452;8.656;2022-08-26T16:53:53;26.90;99.90
1766;DHT22;880;52.452;8.656;2022-08-26T16:56:27;26.80;99.90
1766;DHT22;880;52.452;8.656;2022-08-26T16:59:01;26.70;99.90
1766;DHT22;880;52.452;8.656;2022-08-26T17:01:29;26.60;99.90
1766;DHT22;880;52.452;8.656;2022-08-26T17:03:56;26.60;99.90
1766;DHT22;880;52.452;8.656;2022-08-26T17:06:23;26.60;99.90
1766;DHT22;880;52.452;8.656;2022-08-26T17:08:50;26.60;99.90
1766;DHT22;880;52.452;8.656;2022-08-26T17:11:18;26.60;99.90
1766;DHT22;880;52.452;8.656;2022-08-26T17:13:45;26.50;99.90
1766;DHT22;880;52.452;8.656;2022-08-26T17:16:13;26.40;99.90
1766;DHT22;880;52.452;8.656;2022-08-26T17:18:40;26.30;99.90
1766;DHT22;880;52.452;8.656;2022-08-26T17:21:10;26.20;99.90
1766;DHT22;880;52.452;8.656;2022-08-26T17:23:39;26.20;99.90
1766;DHT22;880;52.452;8.656;2022-08-26T17:26:08;26.20;99.90
1766;DHT22;880;52.452;8.656;2022-08-26T17:28:37;26.30;99.90
1766;DHT22;880;52.452;8.656;2022-08-26T17:31:07;26.30;99.90
1766;DHT22;880;52.452;8.656;2022-08-26T17:33:36;26.30;99.90